sensor_id;sensor_type;location;lat;lon;timestamp;pressure;altitude;pressure_sealevel;temperature;humidity
42067;BME280;27734;47.028;28.820;2023-02-12T00:00:49;101184.53;;;0.03;54.01
42067;BME280;27734;47.028;28.820;2023-02-12T00:03:41;101174.48;;;0.06;54.18
42067;BME280;27734;47.028;28.820;2023-02-12T00:06:12;101170.39;;;0.08;54.56
42067;BME280;27734;47.028;28.820;2023-02-12T00:08:47;101166.39;;;0.12;54.16
42067;BME280;27734;47.028;28.820;2023-02-12T00:11:20;101165.91;;;0.16;54.56
42067;BME280;27734;47.028;28.820;2023-02-12T00:13:52;101169.78;;;0.21;54.35
42067;BME280;27734;47.028;28.820;2023-02-12T00:16:26;101159.73;;;0.24;54.91
42067;BME280;27734;47.028;28.820;2023-02-12T00:18:58;101154.97;;;0.29;54.91
42067;BME280;27734;47.028;28.820;2023-02-12T00:21:29;101155.99;;;0.31;54.70
42067;BME280;27734;47.028;28.820;2023-02-12T00:24:01;101160.53;;;0.33;55.09
42067;BME280;27734;47.028;28.820;2023-02-12T00:26:32;101156.26;;;0.34;55.20
42067;BME280;27734;47.028;28.820;2023-02-12T00:29:03;101145.40;;;0.28;55.14
42067;BME280;27734;47.028;28.820;2023-02-12T00:31:35;101143.35;;;0.34;54.90
42067;BME280;27734;47.028;28.820;2023-02-12T00:34:06;101141.70;;;0.34;55.86
42067;BME280;27734;47.028;28.820;2023-02-12T00:36:37;101138.32;;;0.35;55.26
42067;BME280;27734;47.028;28.820;2023-02-12T00:39:10;101129.81;;;0.37;55.05
42067;BME280;27734;47.028;28.820;2023-02-12T00:41:41;101140.41;;;0.40;55.12
42067;BME280;27734;47.028;28.820;2023-02-12T00:44:13;101133.69;;;0.42;55.62
42067;BME280;27734;47.028;28.820;2023-02-12T00:46:44;101128.52;;;0.42;55.15
42067;BME280;27734;47.028;28.820;2023-02-12T00:49:16;101125.94;;;0.42;55.81
42067;BME280;27734;47.028;28.820;2023-02-12T00:51:49;101126.88;;;0.42;55.62
42067;BME280;27734;47.028;28.820;2023-02-12T00:54:20;101125.18;;;0.43;55.75
42067;BME280;27734;47.028;28.820;2023-02-12T00:56:51;101120.91;;;0.43;55.45
42067;BME280;27734;47.028;28.820;2023-02-12T00:59:24;101116.81;;;0.45;56.01
42067;BME280;27734;47.028;28.820;2023-02-12T01:01:56;101118.72;;;0.48;55.97
42067;BME280;27734;47.028;28.820;2023-02-12T01:04:27;101115.37;;;0.49;56.67
42067;BME280;27734;47.028;28.820;2023-02-12T01:06:58;101110.22;;;0.49;56.24
42067;BME280;27734;47.028;28.820;2023-02-12T01:09:30;101103.49;;;0.51;56.74
42067;BME280;27734;47.028;28.820;2023-02-12T01:12:01;101102.86;;;0.53;56.54
42067;BME280;27734;47.028;28.820;2023-02-12T01:14:32;101107.36;;;0.56;56.20
42067;BME280;27734;47.028;28.820;2023-02-12T01:17:04;101107.63;;;0.59;56.85
42067;BME280;27734;47.028;28.820;2023-02-12T01:19:37;101096.79;;;0.63;56.55
42067;BME280;27734;47.028;28.820;2023-02-12T01:22:08;101094.59;;;0.68;56.27
42067;BME280;27734;47.028;28.820;2023-02-12T01:24:40;101094.09;;;0.72;56.58
42067;BME280;27734;47.028;28.820;2023-02-12T01:27:11;101090.97;;;0.76;56.41
42067;BME280;27734;47.028;28.820;2023-02-12T01:29:42;101099.11;;;0.81;57.28
42067;BME280;27734;47.028;28.820;2023-02-12T01:32:14;101106.36;;;0.85;56.54
42067;BME280;27734;47.028;28.820;2023-02-12T01:34:45;101104.03;;;0.88;56.84
42067;BME280;27734;47.028;28.820;2023-02-12T01:37:17;101099.13;;;0.91;57.53
42067;BME280;27734;47.028;28.820;2023-02-12T01:39:48;101096.92;;;0.96;57.05
42067;BME280;27734;47.028;28.820;2023-02-12T01:42:19;101094.72;;;1.00;57.62
42067;BME280;27734;47.028;28.820;2023-02-12T01:48:00;101089.91;;;1.15;57.83
42067;BME280;27734;47.028;28.820;2023-02-12T01:50:32;101091.08;;;1.19;57.52
42067;BME280;27734;47.028;28.820;2023-02-12T01:53:03;101092.99;;;1.21;58.00
42067;BME280;27734;47.028;28.820;2023-02-12T01:55:35;101103.46;;;1.23;58.41
42067;BME280;27734;47.028;28.820;2023-02-12T01:58:06;101106.17;;;1.24;57.47
42067;BME280;27734;47.028;28.820;2023-02-12T02:00:40;101103.59;;;1.24;57.78
42067;BME280;27734;47.028;28.820;2023-02-12T02:03:11;101107.23;;;1.27;56.93
42067;BME280;27734;47.028;28.820;2023-02-12T02:05:49;101101.13;;;1.26;57.89
42067;BME280;27734;47.028;28.820;2023-02-12T02:08:24;101101.26;;;1.28;58.12
42067;BME280;27734;47.028;28.820;2023-02-12T02:10:56;101103.45;;;1.33;58.14
42067;BME280;27734;47.028;28.820;2023-02-12T02:13:27;101103.83;;;1.38;57.81
42067;BME280;27734;47.028;28.820;2023-02-12T02:16:21;101102.39;;;1.41;57.96
42067;BME280;27734;47.028;28.820;2023-02-12T02:18:57;101105.36;;;1.46;58.63
42067;BME280;27734;47.028;28.820;2023-02-12T02:21:50;101104.71;;;1.49;58.42
42067;BME280;27734;47.028;28.820;2023-02-12T02:27:41;101103.02;;;1.49;58.94
42067;BME280;27734;47.028;28.820;2023-02-12T02:30:26;101115.31;;;1.52;58.63
42067;BME280;27734;47.028;28.820;2023-02-12T02:33:10;101118.79;;;1.52;59.38
42067;BME280;27734;47.028;28.820;2023-02-12T02:35:49;101115.31;;;1.52;59.07
42067;BME280;27734;47.028;28.820;2023-02-12T02:38:27;101123.07;;;1.52;59.89
42067;BME280;27734;47.028;28.820;2023-02-12T02:41:07;101120.48;;;1.52;59.52
42067;BME280;27734;47.028;28.820;2023-02-12T02:43:46;101126.42;;;1.51;60.29
42067;BME280;27734;47.028;28.820;2023-02-12T02:46:21;101134.31;;;1.52;59.99
42067;BME280;27734;47.028;28.820;2023-02-12T02:48:59;101127.60;;;1.54;60.20
42067;BME280;27734;47.028;28.820;2023-02-12T02:51:34;101133.67;;;1.55;59.92
42067;BME280;27734;47.028;28.820;2023-02-12T02:54:10;101142.20;;;1.54;60.19
42067;BME280;27734;47.028;28.820;2023-02-12T02:56:45;101131.97;;;1.55;60.71
42067;BME280;27734;47.028;28.820;2023-02-12T02:59:24;101139.22;;;1.59;60.55
42067;BME280;27734;47.028;28.820;2023-02-12T03:02:03;101142.58;;;1.58;61.81
42067;BME280;27734;47.028;28.820;2023-02-12T03:04:40;101145.28;;;1.60;61.62
42067;BME280;27734;47.028;28.820;2023-02-12T03:07:18;101147.75;;;1.58;61.35
42067;BME280;27734;47.028;28.820;2023-02-12T03:09:55;101145.03;;;1.57;60.84
42067;BME280;27734;47.028;28.820;2023-02-12T03:12:32;101144.27;;;1.58;62.69
42067;BME280;27734;47.028;28.820;2023-02-12T03:15:09;101141.93;;;1.61;62.85
42067;BME280;27734;47.028;28.820;2023-02-12T03:17:44;101142.83;;;1.61;62.94
42067;BME280;27734;47.028;28.820;2023-02-12T03:20:19;101135.95;;;1.62;63.83
42067;BME280;27734;47.028;28.820;2023-02-12T03:22:56;101142.18;;;1.64;64.13
42067;BME280;27734;47.028;28.820;2023-02-12T03:25:32;101141.50;;;1.67;65.81
42067;BME280;27734;47.028;28.820;2023-02-12T03:28:09;101141.75;;;1.70;65.33
42067;BME280;27734;47.028;28.820;2023-02-12T03:30:47;101145.27;;;1.70;66.12
42067;BME280;27734;47.028;28.820;2023-02-12T03:33:27;101137.63;;;1.72;66.52
42067;BME280;27734;47.028;28.820;2023-02-12T03:36:08;101147.18;;;1.73;67.29
42067;BME280;27734;47.028;28.820;2023-02-12T03:38:46;101135.94;;;1.72;67.10
42067;BME280;27734;47.028;28.820;2023-02-12T03:41:23;101142.00;;;1.73;67.12
42067;BME280;27734;47.028;28.820;2023-02-12T03:44:04;101144.97;;;1.77;68.46
42067;BME280;27734;47.028;28.820;2023-02-12T03:46:41;101153.66;;;1.78;69.60
42067;BME280;27734;47.028;28.820;2023-02-12T03:49:20;101142.63;;;1.80;68.67
42067;BME280;27734;47.028;28.820;2023-02-12T03:51:53;101140.04;;;1.80;68.79
42067;BME280;27734;47.028;28.820;2023-02-12T03:54:25;101153.91;;;1.81;69.69
42067;BME280;27734;47.028;28.820;2023-02-12T03:57:01;101157.39;;;1.82;69.39
42067;BME280;27734;47.028;28.820;2023-02-12T03:59:35;101149.10;;;1.86;70.42
42067;BME280;27734;47.028;28.820;2023-02-12T04:02:08;101157.64;;;1.85;69.65
42067;BME280;27734;47.028;28.820;2023-02-12T04:04:40;101168.11;;;1.86;70.26
42067;BME280;27734;47.028;28.820;2023-02-12T04:07:12;101154.53;;;1.89;70.49
42067;BME280;27734;47.028;28.820;2023-02-12T04:09:44;101151.14;;;1.90;70.58
42067;BME280;27734;47.028;28.820;2023-02-12T04:12:34;101156.31;;;1.90;70.79
42067;BME280;27734;47.028;28.820;2023-02-12T04:15:22;101153.08;;;1.92;72.16
42067;BME280;27734;47.028;28.820;2023-02-12T04:18:03;101163.68;;;1.95;71.73
42067;BME280;27734;47.028;28.820;2023-02-12T04:20:45;101163.56;;;1.94;71.37
42067;BME280;27734;47.028;28.820;2023-02-12T04:23:32;101165.25;;;1.93;71.76
42067;BME280;27734;47.028;28.820;2023-02-12T04:26:13;101180.91;;;1.95;71.45
42067;BME280;27734;47.028;28.820;2023-02-12T04:28:54;101172.34;;;1.96;71.01
42067;BME280;27734;47.028;28.820;2023-02-12T04:31:31;101168.98;;;1.97;70.14
42067;BME280;27734;47.028;28.820;2023-02-12T04:34:11;101172.59;;;1.99;69.33
42067;BME280;27734;47.028;28.820;2023-02-12T04:36:51;101180.60;;;2.02;71.50
42067;BME280;27734;47.028;28.820;2023-02-12T04:39:28;101179.84;;;2.03;70.44
42067;BME280;27734;47.028;28.820;2023-02-12T04:42:01;101178.14;;;2.04;70.26
42067;BME280;27734;47.028;28.820;2023-02-12T04:44:36;101180.97;;;2.07;70.42
42067;BME280;27734;47.028;28.820;2023-02-12T04:47:08;101180.97;;;2.07;70.80
42067;BME280;27734;47.028;28.820;2023-02-12T04:49:40;101191.45;;;2.08;71.50
42067;BME280;27734;47.028;28.820;2023-02-12T04:52:12;101187.20;;;2.09;71.88
42067;BME280;27734;47.028;28.820;2023-02-12T04:54:43;101199.47;;;2.11;71.50
42067;BME280;27734;47.028;28.820;2023-02-12T04:57:14;101199.59;;;2.13;71.97
42067;BME280;27734;47.028;28.820;2023-02-12T04:59:45;101196.36;;;2.15;71.95
42067;BME280;27734;47.028;28.820;2023-02-12T05:02:17;101187.54;;;2.13;72.67
42067;BME280;27734;47.028;28.820;2023-02-12T05:04:49;101194.78;;;2.18;73.13
42067;BME280;27734;47.028;28.820;2023-02-12T05:07:20;101197.38;;;2.18;72.71
42067;BME280;27734;47.028;28.820;2023-02-12T05:09:53;101206.97;;;2.19;72.59
42067;BME280;27734;47.028;28.820;2023-02-12T05:12:24;101210.45;;;2.19;72.94
42067;BME280;27734;47.028;28.820;2023-02-12T05:14:55;101219.11;;;2.20;72.85
42067;BME280;27734;47.028;28.820;2023-02-12T05:17:27;101226.75;;;2.18;72.23
42067;BME280;27734;47.028;28.820;2023-02-12T05:19:58;101230.27;;;2.19;72.87
42067;BME280;27734;47.028;28.820;2023-02-12T05:22:30;101233.75;;;2.19;73.49
42067;BME280;27734;47.028;28.820;2023-02-12T05:25:01;101232.73;;;2.17;72.38
42067;BME280;27734;47.028;28.820;2023-02-12T05:27:33;101241.64;;;2.21;73.91
42067;BME280;27734;47.028;28.820;2023-02-12T05:30:05;101252.89;;;2.21;73.70
42067;BME280;27734;47.028;28.820;2023-02-12T05:32:38;101253.82;;;2.22;75.50
42067;BME280;27734;47.028;28.820;2023-02-12T05:35:09;101254.84;;;2.24;74.51
42067;BME280;27734;47.028;28.820;2023-02-12T05:37:40;101249.66;;;2.24;73.93
42067;BME280;27734;47.028;28.820;2023-02-12T05:40:13;101252.50;;;2.27;74.42
42067;BME280;27734;47.028;28.820;2023-02-12T05:42:45;101263.87;;;2.29;73.39
42067;BME280;27734;47.028;28.820;2023-02-12T05:45:16;101253.77;;;2.32;74.50
42067;BME280;27734;47.028;28.820;2023-02-12T05:47:47;101252.23;;;2.34;74.09
42067;BME280;27734;47.028;28.820;2023-02-12T05:50:19;101268.02;;;2.37;73.82
42067;BME280;27734;47.028;28.820;2023-02-12T05:52:50;101278.50;;;2.39;74.97
42067;BME280;27734;47.028;28.820;2023-02-12T05:55:22;101273.56;;;2.42;75.54
42067;BME280;27734;47.028;28.820;2023-02-12T05:57:53;101281.59;;;2.45;75.03
42067;BME280;27734;47.028;28.820;2023-02-12T06:00:25;101292.20;;;2.48;74.99
42067;BME280;27734;47.028;28.820;2023-02-12T06:02:56;101294.11;;;2.50;75.41
42067;BME280;27734;47.028;28.820;2023-02-12T06:05:27;101284.80;;;2.53;75.65
42067;BME280;27734;47.028;28.820;2023-02-12T06:07:58;101295.41;;;2.56;75.67
42067;BME280;27734;47.028;28.820;2023-02-12T06:10:30;101292.02;;;2.57;75.76
42067;BME280;27734;47.028;28.820;2023-02-12T06:13:01;101292.13;;;2.58;75.74
42067;BME280;27734;47.028;28.820;2023-02-12T06:15:32;101300.03;;;2.60;75.18
42067;BME280;27734;47.028;28.820;2023-02-12T06:18:06;101309.75;;;2.62;76.22
42067;BME280;27734;47.028;28.820;2023-02-12T06:20:38;101305.59;;;2.64;76.70
42067;BME280;27734;47.028;28.820;2023-02-12T06:23:09;101318.55;;;2.64;76.89
42067;BME280;27734;47.028;28.820;2023-02-12T06:25:41;101329.03;;;2.66;75.70
42067;BME280;27734;47.028;28.820;2023-02-12T06:28:12;101333.57;;;2.68;77.03
42067;BME280;27734;47.028;28.820;2023-02-12T06:30:44;101342.36;;;2.70;76.17
42067;BME280;27734;47.028;28.820;2023-02-12T06:33:15;101338.20;;;2.73;77.39
42067;BME280;27734;47.028;28.820;2023-02-12T06:35:47;101347.02;;;2.75;77.85
42067;BME280;27734;47.028;28.820;2023-02-12T06:38:18;101350.62;;;2.77;78.06
42067;BME280;27734;47.028;28.820;2023-02-12T06:40:49;101340.52;;;2.80;77.99
42067;BME280;27734;47.028;28.820;2023-02-12T06:43:20;101348.13;;;2.88;77.89
42067;BME280;27734;47.028;28.820;2023-02-12T06:45:52;101345.10;;;2.94;77.25
42067;BME280;27734;47.028;28.820;2023-02-12T06:48:23;101348.06;;;2.99;77.03
42067;BME280;27734;47.028;28.820;2023-02-12T06:50:54;101358.67;;;3.02;77.15
42067;BME280;27734;47.028;28.820;2023-02-12T06:53:25;101351.02;;;3.03;77.03
42067;BME280;27734;47.028;28.820;2023-02-12T06:55:58;101365.93;;;3.06;77.22
42067;BME280;27734;47.028;28.820;2023-02-12T06:58:30;101367.75;;;3.07;77.33
42067;BME280;27734;47.028;28.820;2023-02-12T07:01:10;101367.06;;;3.10;77.09
42067;BME280;27734;47.028;28.820;2023-02-12T07:03:42;101372.50;;;3.13;77.44
42067;BME280;27734;47.028;28.820;2023-02-12T07:06:14;101377.03;;;3.15;77.58
42067;BME280;27734;47.028;28.820;2023-02-12T07:08:46;101380.77;;;3.19;77.69
42067;BME280;27734;47.028;28.820;2023-02-12T07:11:19;101380.64;;;3.17;77.28
42067;BME280;27734;47.028;28.820;2023-02-12T07:13:52;101389.44;;;3.19;77.74
42067;BME280;27734;47.028;28.820;2023-02-12T07:16:24;101389.44;;;3.19;77.12
42067;BME280;27734;47.028;28.820;2023-02-12T07:18:55;101385.83;;;3.17;77.62
42067;BME280;27734;47.028;28.820;2023-02-12T07:21:26;101396.20;;;3.17;77.48
42067;BME280;27734;47.028;28.820;2023-02-12T07:23:57;101403.98;;;3.17;77.95
42067;BME280;27734;47.028;28.820;2023-02-12T07:26:29;101398.92;;;3.19;77.99
42067;BME280;27734;47.028;28.820;2023-02-12T07:29:00;101405.25;;;3.22;77.65
42067;BME280;27734;47.028;28.820;2023-02-12T07:31:32;101407.07;;;3.23;77.31
42067;BME280;27734;47.028;28.820;2023-02-12T07:34:03;101409.14;;;3.28;77.58
42067;BME280;27734;47.028;28.820;2023-02-12T07:36:35;101414.13;;;3.36;77.43
42067;BME280;27734;47.028;28.820;2023-02-12T07:39:06;101411.25;;;3.44;78.31
42067;BME280;27734;47.028;28.820;2023-02-12T07:41:37;101410.84;;;3.49;78.92
42067;BME280;27734;47.028;28.820;2023-02-12T07:44:10;101405.89;;;3.52;78.52
42067;BME280;27734;47.028;28.820;2023-02-12T07:46:43;101406.49;;;3.60;78.31
42067;BME280;27734;47.028;28.820;2023-02-12T07:49:16;101410.02;;;3.72;79.13
42067;BME280;27734;47.028;28.820;2023-02-12T07:51:48;101430.19;;;3.87;78.37
42067;BME280;27734;47.028;28.820;2023-02-12T07:54:20;101423.34;;;3.99;78.91
42067;BME280;27734;47.028;28.820;2023-02-12T07:56:51;101419.20;;;4.13;78.16
42067;BME280;27734;47.028;28.820;2023-02-12T07:59:22;101415.72;;;4.24;78.21
42067;BME280;27734;47.028;28.820;2023-02-12T08:01:54;101418.09;;;4.33;77.75
42067;BME280;27734;47.028;28.820;2023-02-12T08:04:27;101425.69;;;4.42;77.47
42067;BME280;27734;47.028;28.820;2023-02-12T08:06:58;101421.50;;;4.44;77.30
42067;BME280;27734;47.028;28.820;2023-02-12T08:09:31;101431.23;;;4.46;78.18
42067;BME280;27734;47.028;28.820;2023-02-12T08:12:02;101433.16;;;4.49;77.20
42067;BME280;27734;47.028;28.820;2023-02-12T08:14:33;101429.75;;;4.50;76.88
42067;BME280;27734;47.028;28.820;2023-02-12T08:17:04;101435.99;;;4.52;77.14
42067;BME280;27734;47.028;28.820;2023-02-12T08:19:38;101458.46;;;4.52;77.19
42067;BME280;27734;47.028;28.820;2023-02-12T08:22:09;101452.25;;;4.49;77.10
42067;BME280;27734;47.028;28.820;2023-02-12T08:24:40;101453.03;;;4.48;76.93
42067;BME280;27734;47.028;28.820;2023-02-12T08:27:12;101460.95;;;4.50;76.73
42067;BME280;27734;47.028;28.820;2023-02-12T08:29:43;101461.98;;;4.52;76.71
42067;BME280;27734;47.028;28.820;2023-02-12T08:32:14;101473.39;;;4.54;76.88
42067;BME280;27734;47.028;28.820;2023-02-12T08:34:45;101481.31;;;4.56;75.84
42067;BME280;27734;47.028;28.820;2023-02-12T08:37:17;101472.16;;;4.61;75.25
42067;BME280;27734;47.028;28.820;2023-02-12T08:39:49;101469.12;;;4.66;74.17
42067;BME280;27734;47.028;28.820;2023-02-12T08:42:20;101477.27;;;4.71;73.54
42067;BME280;27734;47.028;28.820;2023-02-12T08:44:54;101490.61;;;4.76;73.12
42067;BME280;27734;47.028;28.820;2023-02-12T08:47:25;101495.23;;;4.80;72.08
42067;BME280;27734;47.028;28.820;2023-02-12T08:49:56;101494.13;;;4.88;73.59
42067;BME280;27734;47.028;28.820;2023-02-12T08:52:27;101494.70;;;4.96;72.89
42067;BME280;27734;47.028;28.820;2023-02-12T08:54:59;101499.43;;;5.01;72.51
42067;BME280;27734;47.028;28.820;2023-02-12T08:57:30;101509.72;;;5.00;71.49
42067;BME280;27734;47.028;28.820;2023-02-12T09:00:03;101514.81;;;4.98;71.76
42067;BME280;27734;47.028;28.820;2023-02-12T09:02:35;101528.28;;;4.93;70.22
42067;BME280;27734;47.028;28.820;2023-02-12T09:05:07;101529.73;;;4.89;69.57
42067;BME280;27734;47.028;28.820;2023-02-12T09:07:38;101546.03;;;4.86;66.46
42067;BME280;27734;47.028;28.820;2023-02-12T09:10:10;101540.36;;;4.92;65.54
42067;BME280;27734;47.028;28.820;2023-02-12T09:12:41;101545.37;;;5.13;67.10
42067;BME280;27734;47.028;28.820;2023-02-12T09:15:13;101543.10;;;5.29;67.30
42067;BME280;27734;47.028;28.820;2023-02-12T09:17:44;101542.85;;;5.50;65.45
42067;BME280;27734;47.028;28.820;2023-02-12T09:20:15;101539.91;;;5.69;65.85
42067;BME280;27734;47.028;28.820;2023-02-12T09:22:47;101544.41;;;5.71;66.64
42067;BME280;27734;47.028;28.820;2023-02-12T09:25:18;101578.52;;;5.63;62.43
42067;BME280;27734;47.028;28.820;2023-02-12T09:27:49;101550.89;;;5.53;63.31
42067;BME280;27734;47.028;28.820;2023-02-12T09:30:21;101554.09;;;5.49;64.83
42067;BME280;27734;47.028;28.820;2023-02-12T09:32:52;101566.17;;;5.48;64.60
42067;BME280;27734;47.028;28.820;2023-02-12T09:35:25;101569.47;;;5.34;63.84
42067;BME280;27734;47.028;28.820;2023-02-12T09:37:56;101572.63;;;5.30;60.29
42067;BME280;27734;47.028;28.820;2023-02-12T09:40:34;101583.60;;;5.37;60.24
42067;BME280;27734;47.028;28.820;2023-02-12T09:43:16;101585.31;;;5.37;60.15
42067;BME280;27734;47.028;28.820;2023-02-12T09:45:54;101572.75;;;5.43;60.77
42067;BME280;27734;47.028;28.820;2023-02-12T09:48:38;101566.77;;;5.44;59.44
42067;BME280;27734;47.028;28.820;2023-02-12T09:51:12;101571.50;;;5.26;56.75
42067;BME280;27734;47.028;28.820;2023-02-12T09:53:45;101573.64;;;5.44;59.70
42067;BME280;27734;47.028;28.820;2023-02-12T09:56:20;101571.94;;;5.68;59.52
42067;BME280;27734;47.028;28.820;2023-02-12T09:58:55;101581.02;;;5.61;58.22
42067;BME280;27734;47.028;28.820;2023-02-12T10:01:29;101593.13;;;5.49;58.91
42067;BME280;27734;47.028;28.820;2023-02-12T10:04:00;101596.06;;;5.42;56.50
42067;BME280;27734;47.028;28.820;2023-02-12T10:06:35;101599.13;;;5.48;59.23
42067;BME280;27734;47.028;28.820;2023-02-12T10:09:24;101597.98;;;5.56;58.65
42067;BME280;27734;47.028;28.820;2023-02-12T10:12:14;101589.72;;;5.62;58.78
42067;BME280;27734;47.028;28.820;2023-02-12T10:15:11;101582.50;;;5.46;56.07
42067;BME280;27734;47.028;28.820;2023-02-12T10:17:49;101600.38;;;5.41;53.65
42067;BME280;27734;47.028;28.820;2023-02-12T10:20:37;101600.94;;;5.49;54.19
42067;BME280;27734;47.028;28.820;2023-02-12T10:23:26;101608.39;;;5.56;53.48
42067;BME280;27734;47.028;28.820;2023-02-12T10:26:05;101613.05;;;5.60;51.99
42067;BME280;27734;47.028;28.820;2023-02-12T10:28:42;101617.11;;;5.68;52.03
42067;BME280;27734;47.028;28.820;2023-02-12T10:31:16;101615.06;;;5.76;53.13
42067;BME280;27734;47.028;28.820;2023-02-12T10:33:50;101616.11;;;5.78;50.37
42067;BME280;27734;47.028;28.820;2023-02-12T10:36:30;101619.49;;;5.77;51.05
42067;BME280;27734;47.028;28.820;2023-02-12T10:39:11;101624.70;;;5.77;49.74
42067;BME280;27734;47.028;28.820;2023-02-12T10:41:48;101617.89;;;5.79;50.31
42067;BME280;27734;47.028;28.820;2023-02-12T10:44:22;101629.02;;;5.76;49.98
42067;BME280;27734;47.028;28.820;2023-02-12T10:46:53;101656.76;;;5.64;46.81
42067;BME280;27734;47.028;28.820;2023-02-12T10:49:25;101668.98;;;5.53;46.10
42067;BME280;27734;47.028;28.820;2023-02-12T10:52:03;101650.95;;;5.45;44.42
42067;BME280;27734;47.028;28.820;2023-02-12T10:54:42;101648.47;;;5.46;45.69
42067;BME280;27734;47.028;28.820;2023-02-12T10:57:21;101670.54;;;5.51;46.83
42067;BME280;27734;47.028;28.820;2023-02-12T10:59:55;101656.30;;;5.58;48.20
42067;BME280;27734;47.028;28.820;2023-02-12T11:02:29;101665.13;;;5.60;47.64
42067;BME280;27734;47.028;28.820;2023-02-12T11:07:51;101679.51;;;5.55;47.12
42067;BME280;27734;47.028;28.820;2023-02-12T11:10:29;101654.59;;;5.58;48.48
42067;BME280;27734;47.028;28.820;2023-02-12T11:13:01;101663.64;;;5.64;48.84
42067;BME280;27734;47.028;28.820;2023-02-12T11:15:37;101669.30;;;5.70;46.49
42067;BME280;27734;47.028;28.820;2023-02-12T11:18:22;101672.84;;;5.70;47.38
42067;BME280;27734;47.028;28.820;2023-02-12T11:20:56;101666.47;;;5.67;48.59
42067;BME280;27734;47.028;28.820;2023-02-12T11:23:29;101674.52;;;5.70;47.60
42067;BME280;27734;47.028;28.820;2023-02-12T11:26:03;101683.14;;;5.69;48.16
42067;BME280;27734;47.028;28.820;2023-02-12T11:28:36;101675.44;;;5.70;47.51
42067;BME280;27734;47.028;28.820;2023-02-12T11:31:22;101675.44;;;5.70;49.21
42067;BME280;27734;47.028;28.820;2023-02-12T11:34:12;101686.87;;;5.72;47.63
42067;BME280;27734;47.028;28.820;2023-02-12T11:36:46;101684.81;;;5.68;47.12
42067;BME280;27734;47.028;28.820;2023-02-12T11:39:21;101678.38;;;5.63;45.97
42067;BME280;27734;47.028;28.820;2023-02-12T11:41:56;101684.94;;;5.58;46.79
42067;BME280;27734;47.028;28.820;2023-02-12T11:44:31;101695.02;;;5.53;46.80
42067;BME280;27734;47.028;28.820;2023-02-12T11:47:07;101699.30;;;5.53;47.46
42067;BME280;27734;47.028;28.820;2023-02-12T11:49:41;101707.11;;;5.53;46.86
42067;BME280;27734;47.028;28.820;2023-02-12T11:52:19;101696.23;;;5.47;46.18
42067;BME280;27734;47.028;28.820;2023-02-12T11:54:54;101708.42;;;5.36;46.07
42067;BME280;27734;47.028;28.820;2023-02-12T11:57:37;101710.02;;;5.34;46.89
42067;BME280;27734;47.028;28.820;2023-02-12T12:00:16;101709.13;;;5.33;47.64
42067;BME280;27734;47.028;28.820;2023-02-12T12:03:01;101708.08;;;5.31;47.20
42067;BME280;27734;47.028;28.820;2023-02-12T12:05:40;101725.63;;;5.22;46.09
42067;BME280;27734;47.028;28.820;2023-02-12T12:08:18;101726.94;;;5.17;47.42
42067;BME280;27734;47.028;28.820;2023-02-12T12:11:00;101719.02;;;5.15;47.20
42067;BME280;27734;47.028;28.820;2023-02-12T12:13:40;101722.55;;;5.16;46.42
42067;BME280;27734;47.028;28.820;2023-02-12T12:16:17;101724.45;;;5.18;47.74
42067;BME280;27734;47.028;28.820;2023-02-12T12:19:13;101734.09;;;5.19;46.61
42067;BME280;27734;47.028;28.820;2023-02-12T12:22:07;101724.91;;;5.13;46.28
42067;BME280;27734;47.028;28.820;2023-02-12T12:24:47;101732.13;;;5.05;45.65
42067;BME280;27734;47.028;28.820;2023-02-12T12:27:25;101745.44;;;4.98;45.11
42067;BME280;27734;47.028;28.820;2023-02-12T12:30:21;101732.06;;;4.93;44.47
42067;BME280;27734;47.028;28.820;2023-02-12T12:32:56;101730.59;;;4.97;45.82
42067;BME280;27734;47.028;28.820;2023-02-12T12:35:38;101736.84;;;4.99;46.52
42067;BME280;27734;47.028;28.820;2023-02-12T12:38:20;101732.55;;;4.99;45.77
42067;BME280;27734;47.028;28.820;2023-02-12T12:41:03;101734.13;;;4.97;45.36
42067;BME280;27734;47.028;28.820;2023-02-12T12:43:47;101754.13;;;4.98;45.25
42067;BME280;27734;47.028;28.820;2023-02-12T12:46:45;101752.34;;;4.97;44.87
42067;BME280;27734;47.028;28.820;2023-02-12T12:49:31;101747.91;;;4.96;45.45
42067;BME280;27734;47.028;28.820;2023-02-12T12:52:22;101733.89;;;4.94;44.57
42067;BME280;27734;47.028;28.820;2023-02-12T12:55:05;101741.58;;;4.93;45.85
42067;BME280;27734;47.028;28.820;2023-02-12T12:57:52;101777.98;;;4.93;45.89
42067;BME280;27734;47.028;28.820;2023-02-12T13:00:42;101771.08;;;4.93;45.93
42067;BME280;27734;47.028;28.820;2023-02-12T13:06:33;101776.70;;;4.88;45.74
42067;BME280;27734;47.028;28.820;2023-02-12T13:09:39;101763.69;;;4.88;46.05
42067;BME280;27734;47.028;28.820;2023-02-12T13:12:37;101771.61;;;4.89;45.74
42067;BME280;27734;47.028;28.820;2023-02-12T13:15:20;101769.83;;;4.88;45.46
42067;BME280;27734;47.028;28.820;2023-02-12T13:18:03;101786.33;;;4.89;45.68
42067;BME280;27734;47.028;28.820;2023-02-12T13:20:45;101791.53;;;4.89;44.47
42067;BME280;27734;47.028;28.820;2023-02-12T13:23:22;101797.26;;;4.84;43.91
42067;BME280;27734;47.028;28.820;2023-02-12T13:26:03;101791.16;;;4.84;45.64
42067;BME280;27734;47.028;28.820;2023-02-12T13:28:39;101804.94;;;4.83;44.48
42067;BME280;27734;47.028;28.820;2023-02-12T13:31:15;101793.52;;;4.81;44.25
42067;BME280;27734;47.028;28.820;2023-02-12T13:33:51;101813.42;;;4.80;45.45
42067;BME280;27734;47.028;28.820;2023-02-12T13:36:25;101801.97;;;4.78;44.75
42067;BME280;27734;47.028;28.820;2023-02-12T13:38:59;101796.65;;;4.77;45.59
42067;BME280;27734;47.028;28.820;2023-02-12T13:41:34;101814.08;;;4.78;45.26
42067;BME280;27734;47.028;28.820;2023-02-12T13:44:15;101815.78;;;4.77;44.66